Time;durP1;ratioP1;P1;durP2;ratioP2;P2;SDS_P1;SDS_P2;PMS_P1;PMS_P2;Temp;Humidity;BMP_temperature;BMP_pressure;BME280_temperature;BME280_humidity;BME280_pressure;Samples;Min_cycle;Max_cycle;Signal;HPM_P1;HPM_P2
2022/09/29 00:02:17;;;;;;;5.13;3.33;;;;;;;23.80;46.27;94017.88;4974340;28;20053;-59
2022/09/29 00:04:43;;;;;;;4.05;3.00;;;;;;;23.82;46.24;94007.16;4974517;28;20046;-58
2022/09/29 00:07:09;;;;;;;4.85;3.15;;;;;;;23.87;46.40;94024.09;4962052;28;20480;-59
2022/09/29 00:09:34;;;;;;;5.03;3.10;;;;;;;24.10;46.74;94056.97;4963939;28;20040;-57
2022/09/29 00:12:00;;;;;;;5.65;3.42;;;;;;;24.09;46.93;94067.13;4960660;28;20046;-58
2022/09/29 00:14:25;;;;;;;4.95;3.42;;;;;;;24.06;46.48;94051.81;4961505;28;20089;-58
2022/09/29 00:16:54;;;;;;;5.07;3.28;;;;;;;24.00;46.47;94034.88;4966915;28;20042;-59
2022/09/29 00:19:20;;;;;;;5.18;3.60;;;;;;;23.53;46.63;93992.03;4974784;28;20193;-59
2022/09/29 00:21:45;;;;;;;4.70;3.30;;;;;;;23.77;47.05;94008.75;4955978;28;20023;-60
2022/09/29 00:24:11;;;;;;;4.65;3.30;;;;;;;23.60;46.88;93989.34;4979347;28;20042;-59
2022/09/29 00:26:36;;;;;;;4.78;3.67;;;;;;;24.00;46.76;94059.41;4974263;28;20041;-57
2022/09/29 00:29:02;;;;;;;5.45;3.67;;;;;;;23.93;46.88;94043.75;4979961;28;20121;-58
2022/09/29 00:31:29;;;;;;;4.93;3.15;;;;;;;24.03;47.12;94052.91;4978490;28;20107;-59
2022/09/29 00:33:55;;;;;;;4.47;3.35;;;;;;;23.72;47.13;94001.47;4999253;28;20026;-59
2022/09/29 00:36:21;;;;;;;5.28;3.30;;;;;;;23.65;46.58;93987.78;4996381;28;20143;-58
2022/09/29 00:38:47;;;;;;;4.38;3.20;;;;;;;23.89;46.72;94032.44;4986647;28;20050;-67
2022/09/29 00:41:16;;;;;;;4.55;3.45;;;;;;;23.81;47.19;94024.75;4962985;28;20054;-68
2022/09/29 00:44:01;;;;;;;5.05;3.20;;;;;;;24.03;47.02;94052.91;4998514;28;20045;-68
2022/09/29 00:46:43;;;;;;;5.43;3.45;;;;;;;23.81;46.62;94030.22;4967064;28;20092;-67
2022/09/29 00:49:25;;;;;;;4.90;3.50;;;;;;;23.89;47.12;94027.00;4982734;28;20520;-68
2022/09/29 00:52:04;;;;;;;4.65;3.17;;;;;;;24.02;46.98;94048.72;4993290;28;20031;-67
2022/09/29 00:54:38;;;;;;;5.18;3.47;;;;;;;23.51;46.81;94002.72;4999133;28;20042;-70
2022/09/29 00:57:05;;;;;;;5.57;3.35;;;;;;;23.98;47.22;94051.06;4990809;28;20046;-65
2022/09/29 01:00:01;;;;;;;4.38;3.15;;;;;;;23.83;46.65;94019.53;4966268;28;20130;-67
2022/09/29 01:02:26;;;;;;;4.10;3.10;;;;;;;23.98;47.05;94042.88;4966158;28;20045;-67
2022/09/29 01:04:52;;;;;;;4.22;2.97;;;;;;;23.89;47.17;94032.44;4994719;28;20042;-67
2022/09/29 01:07:20;;;;;;;4.45;3.00;;;;;;;23.89;47.07;94027.00;4960287;28;20042;-67
2022/09/29 01:09:46;;;;;;;6.22;3.63;;;;;;;23.88;46.99;94030.25;4985320;28;20010;-67
2022/09/29 01:12:12;;;;;;;5.25;3.15;;;;;;;23.54;46.80;93974.38;4960481;28;20581;-68
2022/09/29 01:14:37;;;;;;;4.78;3.55;;;;;;;23.71;47.34;94021.06;4998312;28;20069;-68
2022/09/29 01:17:03;;;;;;;5.35;3.65;;;;;;;23.94;47.33;94039.75;4998187;28;20530;-66
2022/09/29 01:19:57;;;;;;;5.93;4.00;;;;;;;23.73;47.25;94018.53;4996792;28;20112;-67
2022/09/29 01:22:47;;;;;;;4.13;3.40;;;;;;;23.93;47.35;94049.22;4993193;28;20034;-67
2022/09/29 01:25:16;;;;;;;;;;;;;;;23.94;47.34;94050.66;4986672;28;20050;-65
2022/09/29 01:28:17;;;;;;;4.72;3.67;;;;;;;23.85;47.41;94025.16;4998412;28;20313;-67
2022/09/29 01:31:09;;;;;;;5.45;3.55;;;;;;;23.92;46.92;94047.75;4968409;28;20082;-67
2022/09/29 01:33:48;;;;;;;5.88;3.50;;;;;;;23.90;47.09;94033.16;4974194;28;20091;-65
2022/09/29 01:36:27;;;;;;;5.30;3.30;;;;;;;23.63;47.20;93992.97;4983669;28;20042;-67
2022/09/29 01:39:05;;;;;;;4.78;3.78;;;;;;;23.89;47.59;94037.91;5001714;28;20048;-66
2022/09/29 01:41:50;;;;;;;5.28;3.28;;;;;;;23.90;47.35;94055.75;4993441;28;20228;-66
2022/09/29 01:44:36;;;;;;;4.50;3.08;;;;;;;23.89;47.14;94057.00;4978991;28;20076;-66
2022/09/29 01:47:10;;;;;;;4.55;3.28;;;;;;;23.89;47.20;94059.72;4970901;28;20108;-68
2022/09/29 01:49:39;;;;;;;4.05;3.17;;;;;;;23.88;47.62;94063.72;4948635;28;20043;-67
2022/09/29 01:52:10;;;;;;;5.13;3.60;;;;;;;23.77;47.29;94057.09;4977345;28;20117;-65
2022/09/29 01:54:57;;;;;;;4.55;3.30;;;;;;;23.87;47.47;94067.00;4965063;28;20045;-66
2022/09/29 01:57:30;;;;;;;5.05;3.20;;;;;;;23.65;47.19;94028.66;4949187;28;20046;-65
2022/09/29 02:00:08;;;;;;;5.75;3.90;;;;;;;23.55;47.37;94014.00;4961142;28;20039;-67
2022/09/29 02:02:43;;;;;;;4.38;3.30;;;;;;;23.86;47.61;94060.78;4977605;28;20138;-68
2022/09/29 02:05:23;;;;;;;4.63;3.38;;;;;;;23.37;47.74;93987.00;4965452;28;20046;-66
2022/09/29 02:07:49;;;;;;;4.88;3.75;;;;;;;23.87;47.16;94067.72;4977648;28;20199;-67
2022/09/29 02:11:07;;;;;;;4.78;3.40;;;;;;;23.76;47.67;94058.34;4945820;28;20063;-67
2022/09/29 02:13:37;;;;;;;4.72;3.50;;;;;;;23.59;47.43;94036.22;4959511;28;20060;-68
2022/09/29 02:16:02;;;;;;;4.85;3.70;;;;;;;23.69;47.60;94050.84;4960793;28;20026;-68
2022/09/29 02:18:31;;;;;;;4.78;3.25;;;;;;;23.81;47.45;94068.38;4981665;28;20108;-65
2022/09/29 02:20:57;;;;;;;5.13;3.58;;;;;;;23.50;47.42;94039.41;4980263;28;20523;-67
2022/09/29 02:23:22;;;;;;;5.13;3.45;;;;;;;23.46;47.41;94025.38;4974890;28;20054;-68
2022/09/29 02:25:48;;;;;;;5.00;3.40;;;;;;;23.84;47.75;94072.75;4960859;28;20144;-68
2022/09/29 02:28:13;;;;;;;4.95;3.50;;;;;;;23.84;47.56;94078.22;4980849;28;20050;-66
2022/09/29 02:30:39;;;;;;;6.03;3.38;;;;;;;23.77;47.68;94085.09;4946987;28;20042;-65
2022/09/29 02:33:04;;;;;;;5.07;3.70;;;;;;;23.82;47.98;94075.31;4986322;28;20057;-69
2022/09/29 02:35:44;;;;;;;5.75;3.50;;;;;;;23.37;47.92;94014.25;4979134;28;20042;-67
2022/09/29 02:38:11;;;;;;;;;;;;;;;23.82;47.53;94075.31;4943156;28;20571;-68
2022/09/29 02:40:52;;;;;;;4.80;3.20;;;;;;;23.70;47.81;94046.88;4976634;28;20037;-69
2022/09/29 02:43:51;;;;;;;4.40;3.40;;;;;;;23.81;47.79;94076.56;4953586;28;20041;-66
2022/09/29 02:46:24;;;;;;;5.30;3.30;;;;;;;23.80;47.86;94083.28;4968822;28;20108;-60
2022/09/29 02:48:52;;;;;;;4.78;3.30;;;;;;;23.80;47.58;94073.09;4963186;28;20473;-59
2022/09/29 02:51:38;;;;;;;6.00;3.50;;;;;;;23.80;47.55;94088.75;4962196;28;20087;-57
2022/09/29 02:54:24;;;;;;;4.78;3.45;;;;;;;23.78;47.73;94072.19;4966271;28;20038;-60
2022/09/29 02:57:27;;;;;;;5.22;3.42;;;;;;;23.73;47.56;94078.50;4951093;28;20049;-58
2022/09/29 03:00:15;;;;;;;5.93;3.38;;;;;;;23.83;48.14;94076.78;4967463;28;20066;-59
2022/09/29 03:02:41;;;;;;;4.57;3.25;;;;;;;23.85;47.46;94060.59;4979106;28;20049;-63
2022/09/29 03:05:18;;;;;;;4.50;3.50;;;;;;;23.73;47.58;94018.53;4985703;28;20112;-62
2022/09/29 03:07:44;;;;;;;4.63;3.40;;;;;;;23.84;47.47;94029.13;4959355;28;20046;-59
2022/09/29 03:10:10;;;;;;;4.70;3.20;;;;;;;23.28;47.44;93958.22;4981462;28;20064;-62
2022/09/29 03:12:36;;;;;;;5.05;3.15;;;;;;;23.47;47.43;93996.88;4980736;28;20022;-59
2022/09/29 03:15:01;;;;;;;5.45;3.60;;;;;;;23.82;47.70;94037.13;4958438;28;20523;-62
2022/09/29 03:17:27;;;;;;;5.43;3.20;;;;;;;23.35;47.90;93981.34;4957389;28;20039;-62
2022/09/29 03:19:53;;;;;;;6.25;2.85;;;;;;;23.29;47.91;93981.50;4974660;28;20679;-63
2022/09/29 03:22:18;;;;;;;4.57;3.20;;;;;;;23.55;48.14;94014.00;4969012;28;20042;-62
2022/09/29 03:24:44;;;;;;;4.32;3.25;;;;;;;23.44;47.69;93997.94;4948654;28;20480;-57
2022/09/29 03:27:09;;;;;;;4.75;3.55;;;;;;;23.13;47.61;93969.00;4980267;28;20470;-62
2022/09/29 03:29:35;;;;;;;5.72;3.30;;;;;;;23.63;47.89;94031.16;4979619;28;20099;-64
2022/09/29 03:32:01;;;;;;;4.47;3.28;;;;;;;23.82;47.86;94065.13;4975004;28;20050;-62
2022/09/29 03:34:27;;;;;;;3.58;3.00;;;;;;;23.72;47.91;94077.78;4979461;28;20496;-62
2022/09/29 03:36:52;;;;;;;5.30;3.35;;;;;;;22.77;47.69;93964.66;4999241;28;20109;-64
2022/09/29 03:39:18;;;;;;;5.15;3.53;;;;;;;23.64;48.07;94059.91;4999980;28;20052;-62
2022/09/29 03:41:43;;;;;;;5.07;3.25;;;;;;;23.45;47.67;94037.53;4999195;28;20042;-63
2022/09/29 03:44:09;;;;;;;4.93;3.25;;;;;;;23.16;47.54;94014.22;4998572;28;20042;-62
2022/09/29 03:46:34;;;;;;;4.93;3.13;;;;;;;23.84;47.83;94119.13;4992026;28;20042;-70
2022/09/29 03:48:59;;;;;;;5.20;3.30;;;;;;;23.52;48.16;94081.22;4998913;28;20032;-69
2022/09/29 03:51:25;;;;;;;4.30;3.17;;;;;;;23.76;48.13;94104.69;5000526;28;20117;-69
2022/09/29 03:53:50;;;;;;;4.00;2.95;;;;;;;23.84;48.09;94100.03;5000066;28;20061;-68
2022/09/29 03:56:16;;;;;;;3.85;3.15;;;;;;;23.59;48.06;94044.41;4996938;28;20045;-70
2022/09/29 03:58:41;;;;;;;4.95;3.40;;;;;;;23.58;47.87;94032.03;4986937;28;20042;-69
2022/09/29 04:01:07;;;;;;;4.25;3.10;;;;;;;23.51;48.19;94035.41;4989277;28;20029;-70
2022/09/29 04:03:32;;;;;;;4.13;2.90;;;;;;;23.32;48.51;94018.56;4993830;28;20021;-68
2022/09/29 04:05:58;;;;;;;4.13;2.85;;;;;;;23.78;48.02;94085.81;4987004;28;20065;-69
2022/09/29 04:08:23;;;;;;;4.10;3.13;;;;;;;23.71;48.51;94083.78;4995975;28;20056;-69
2022/09/29 04:10:49;;;;;;;4.22;3.20;;;;;;;23.61;48.08;94072.56;4999928;28;20105;-71
2022/09/29 04:13:15;;;;;;;4.05;3.00;;;;;;;23.51;48.49;94040.84;4999280;28;20522;-71
2022/09/29 04:15:40;;;;;;;5.47;3.15;;;;;;;23.82;48.58;94091.66;4974347;28;20448;-70
2022/09/29 04:18:05;;;;;;;4.28;2.95;;;;;;;23.71;48.17;94081.03;4992873;28;20840;-67
2022/09/29 04:20:31;;;;;;;4.10;2.83;;;;;;;23.30;47.87;94021.06;4999419;28;20111;-70
2022/09/29 04:22:57;;;;;;;4.00;3.00;;;;;;;23.70;48.47;94083.03;4988170;28;20042;-68
2022/09/29 04:25:22;;;;;;;3.88;2.80;;;;;;;23.58;48.46;94056.56;4999314;28;20057;-69
2022/09/29 04:27:48;;;;;;;4.68;3.30;;;;;;;23.28;48.12;93985.47;4992854;28;20086;-69
2022/09/29 04:30:14;;;;;;;3.97;2.72;;;;;;;23.80;48.16;94077.84;4998935;28;20522;-67
2022/09/29 04:32:39;;;;;;;4.88;3.30;;;;;;;23.35;48.30;94009.31;4998906;28;20450;-68
2022/09/29 04:35:05;;;;;;;4.78;3.40;;;;;;;23.48;48.24;94047.38;4999564;28;20033;-69
2022/09/29 04:37:31;;;;;;;4.35;2.95;;;;;;;23.64;48.37;94076.25;4997723;28;20050;-69
2022/09/29 04:39:56;;;;;;;3.58;3.00;;;;;;;23.83;48.48;94095.88;4991786;28;20037;-71
2022/09/29 04:42:22;;;;;;;5.15;3.25;;;;;;;23.25;49.09;93986.53;4995949;28;20034;-69
2022/09/29 04:44:47;;;;;;;5.18;2.90;;;;;;;23.62;48.30;94041.31;4966860;28;20045;-70
2022/09/29 04:47:13;;;;;;;4.10;3.00;;;;;;;23.86;48.76;94082.59;4970376;28;20594;-71
2022/09/29 04:49:38;;;;;;;4.25;3.20;;;;;;;23.60;48.48;94043.13;4976244;28;20093;-70
2022/09/29 04:52:04;;;;;;;4.22;2.95;;;;;;;23.87;48.53;94075.91;4976526;28;20039;-69
2022/09/29 04:54:33;;;;;;;4.68;3.10;;;;;;;23.54;49.16;94045.25;4974016;28;20034;-66
2022/09/29 04:56:59;;;;;;;3.75;2.80;;;;;;;23.69;48.76;94056.28;4979360;28;20042;-64
2022/09/29 04:59:24;;;;;;;4.15;2.85;;;;;;;23.90;48.35;94093.16;4961749;28;20550;-68
2022/09/29 05:01:49;;;;;;;5.00;3.00;;;;;;;23.69;48.40;94050.84;4975571;28;20036;-69
2022/09/29 05:04:15;;;;;;;5.07;2.90;;;;;;;23.90;48.43;94072.09;4980283;28;20053;-66
2022/09/29 05:06:40;;;;;;;4.25;2.58;;;;;;;23.86;48.32;94065.53;4995537;28;20705;-68
2022/09/29 05:09:06;;;;;;;4.32;3.03;;;;;;;23.95;48.48;94076.66;4999770;28;20374;-60
2022/09/29 05:11:32;;;;;;;5.70;2.70;;;;;;;23.64;48.00;94065.34;4988856;28;20155;-61
2022/09/29 05:13:57;;;;;;;6.80;3.08;;;;;;;23.60;48.31;94048.56;4992195;28;20084;-60
2022/09/29 05:16:23;;;;;;;4.95;2.80;;;;;;;23.77;48.43;94085.09;5002137;28;20486;-65
2022/09/29 05:18:49;;;;;;;4.55;3.15;;;;;;;23.54;48.53;94047.97;5003428;28;20453;-62
2022/09/29 05:21:14;;;;;;;4.80;3.20;;;;;;;23.69;48.17;94056.28;4979679;28;20035;-63
2022/09/29 05:23:41;;;;;;;5.78;3.35;;;;;;;23.71;47.85;94040.88;4974667;28;20046;-65
2022/09/29 05:26:07;;;;;;;5.10;3.20;;;;;;;23.86;47.80;94060.78;4963432;28;20035;-61
2022/09/29 05:28:33;;;;;;;5.45;2.88;;;;;;;24.09;48.34;94083.47;4951876;28;20035;-60
2022/09/29 05:31:03;;;;;;;4.68;2.85;;;;;;;23.91;47.46;94029.19;4976708;28;20049;-61
2022/09/29 05:33:28;;;;;;;4.07;2.90;;;;;;;23.97;47.70;94041.41;4983588;28;20100;-63
2022/09/29 05:35:54;;;;;;;4.53;3.10;;;;;;;24.31;47.45;94071.97;4983809;28;20046;-61
2022/09/29 05:38:19;;;;;;;4.57;2.83;;;;;;;24.23;47.34;94049.41;4982719;28;20034;-61
2022/09/29 05:40:45;;;;;;;6.50;2.90;;;;;;;24.08;47.53;94005.66;4988389;28;20576;-61
2022/09/29 05:43:10;;;;;;;6.57;2.90;;;;;;;24.01;47.01;93995.44;5001758;28;20849;-62
2022/09/29 05:45:36;;;;;;;4.15;2.55;;;;;;;24.64;46.70;94104.56;4979250;28;20029;-62
2022/09/29 05:48:01;;;;;;;6.82;2.72;;;;;;;24.75;46.38;94092.59;5002085;28;20136;-62
2022/09/29 05:50:27;;;;;;;4.82;2.90;;;;;;;24.84;46.68;94096.28;4981718;28;20062;-63
2022/09/29 05:52:53;;;;;;;4.88;2.70;;;;;;;24.99;46.44;94107.31;4975518;28;20050;-62
2022/09/29 05:55:18;;;;;;;5.28;2.90;;;;;;;25.03;46.10;94124.06;4983525;28;20470;-66
2022/09/29 05:57:48;;;;;;;4.45;3.08;;;;;;;25.03;45.91;94085.81;4982613;28;20070;-61
2022/09/29 06:00:13;;;;;;;4.40;2.65;;;;;;;25.14;46.11;94101.88;4965702;28;20043;-63
2022/09/29 06:02:39;;;;;;;3.53;2.25;;;;;;;25.24;46.23;94108.28;4980549;28;20084;-62
2022/09/29 06:05:04;;;;;;;4.63;2.83;;;;;;;25.28;45.61;94111.38;4982564;28;20046;-64
2022/09/29 06:07:30;;;;;;;4.65;2.72;;;;;;;24.94;45.44;94045.31;4965339;28;20482;-62
2022/09/29 06:09:55;;;;;;;3.45;2.50;;;;;;;25.29;45.55;94107.38;4977023;28;20559;-64
2022/09/29 06:12:21;;;;;;;3.75;2.72;;;;;;;25.53;45.23;94128.72;4983152;28;20121;-60
2022/09/29 06:14:46;;;;;;;4.15;2.50;;;;;;;25.60;45.05;94133.50;4995229;28;20547;-61
2022/09/29 06:17:12;;;;;;;4.03;2.63;;;;;;;25.51;44.90;94104.66;4983801;28;20042;-63
2022/09/29 06:19:38;;;;;;;3.58;2.53;;;;;;;25.61;44.94;94115.81;4964864;28;20035;-62
2022/09/29 06:22:03;;;;;;;4.15;2.80;;;;;;;25.44;44.79;94069.88;4963543;28;20053;-62
2022/09/29 06:24:29;;;;;;;4.00;2.50;;;;;;;25.29;44.67;94030.88;4973266;28;20050;-62
2022/09/29 06:26:54;;;;;;;3.70;2.47;;;;;;;25.84;44.75;94118.06;4982094;28;20042;-64
2022/09/29 06:29:19;;;;;;;5.32;2.50;;;;;;;25.89;44.47;94122.63;4969449;28;20042;-63
2022/09/29 06:31:45;;;;;;;3.58;2.28;;;;;;;25.60;44.28;94065.13;4979630;28;20089;-62
2022/09/29 06:34:11;;;;;;;4.07;2.75;;;;;;;26.02;44.08;94116.97;4994555;28;20544;-61
2022/09/29 06:39:25;;;;;;;4.10;2.40;;;;;;;25.23;44.10;94027.56;4963552;28;20116;-64
2022/09/29 06:41:52;;;;;;;4.75;2.90;;;;;;;25.82;45.04;94142.47;4949243;28;20925;-61
2022/09/29 06:44:19;;;;;;;3.63;2.40;;;;;;;25.75;44.61;94119.88;4955544;28;20541;-61
2022/09/29 06:46:44;;;;;;;4.20;2.30;;;;;;;25.49;45.09;94131.13;4965799;28;20038;-61
2022/09/29 06:49:12;;;;;;;4.15;2.50;;;;;;;25.32;44.65;94092.63;4968183;28;20574;-63
2022/09/29 06:51:38;;;;;;;3.40;2.30;;;;;;;25.39;45.19;94132.91;4972473;28;20342;-60
2022/09/29 06:54:03;;;;;;;3.30;2.30;;;;;;;25.43;44.92;94123.06;4975437;28;20499;-58
2022/09/29 06:56:29;;;;;;;3.05;2.28;;;;;;;25.12;45.16;94104.41;4957468;28;20108;-59
2022/09/29 06:58:54;;;;;;;3.80;2.50;;;;;;;25.41;45.22;94149.47;4980301;28;20182;-62
2022/09/29 07:01:20;;;;;;;3.60;2.65;;;;;;;25.34;45.30;94159.13;4981969;28;20451;-69
2022/09/29 07:03:45;;;;;;;4.10;2.55;;;;;;;25.29;45.18;94151.13;4973297;28;20062;-61
2022/09/29 07:06:11;;;;;;;4.00;2.63;;;;;;;25.19;45.43;94141.25;4975436;28;20058;-58
2022/09/29 07:08:38;;;;;;;4.30;2.60;;;;;;;24.93;45.21;94120.38;4984967;28;20038;-60
2022/09/29 07:11:06;;;;;;;4.90;2.85;;;;;;;25.20;45.67;94161.81;4965853;28;20100;-61
2022/09/29 07:13:32;;;;;;;5.68;2.40;;;;;;;25.15;45.43;94155.25;4962754;28;20120;-63
2022/09/29 07:16:08;;;;;;;5.63;2.70;;;;;;;25.08;45.76;94153.22;4970672;28;20030;-63
2022/09/29 07:18:36;;;;;;;3.60;2.35;;;;;;;25.09;45.77;94154.66;4998435;28;20022;-60
2022/09/29 07:21:03;;;;;;;5.68;2.50;;;;;;;24.86;45.76;94115.59;4983700;28;20759;-63
2022/09/29 07:23:28;;;;;;;4.57;2.90;;;;;;;24.88;45.58;94115.78;4971628;28;20053;-63
2022/09/29 07:25:54;;;;;;;5.18;2.50;;;;;;;24.98;45.45;94133.13;4970904;28;20816;-61
2022/09/29 07:28:19;;;;;;;4.03;2.70;;;;;;;24.78;45.58;94103.16;4988510;28;20070;-63
2022/09/29 07:30:45;;;;;;;4.50;2.20;;;;;;;24.98;45.88;94137.84;4962278;28;20023;-63
2022/09/29 07:33:10;;;;;;;3.45;2.50;;;;;;;24.96;45.92;94146.59;4977728;28;20047;-60
2022/09/29 07:35:36;;;;;;;4.30;2.65;;;;;;;24.92;45.61;94148.94;4981321;28;20427;-60
2022/09/29 07:38:01;;;;;;;4.15;2.58;;;;;;;24.78;45.86;94119.53;4978771;28;20035;-65
2022/09/29 07:40:27;;;;;;;5.90;2.80;;;;;;;24.95;45.70;94145.13;4986749;28;20030;-64
2022/09/29 07:42:52;;;;;;;4.50;2.55;;;;;;;24.93;45.53;94153.13;4983761;28;20529;-66
2022/09/29 07:45:19;;;;;;;4.28;2.65;;;;;;;24.54;45.55;94094.69;4981916;28;20050;-59
2022/09/29 07:47:44;;;;;;;4.35;2.40;;;;;;;24.55;45.76;94096.16;4964535;28;20182;-61
2022/09/29 07:50:10;;;;;;;5.13;2.55;;;;;;;24.78;45.99;94141.41;4981956;28;20515;-65
2022/09/29 07:52:35;;;;;;;6.13;2.67;;;;;;;24.57;46.20;94110.00;4981458;28;20046;-60
2022/09/29 07:55:01;;;;;;;5.10;3.00;;;;;;;24.77;46.18;94161.03;4981415;28;20462;-62
2022/09/29 07:57:27;;;;;;;6.13;2.72;;;;;;;24.77;46.25;94155.59;4981929;28;20026;-60
2022/09/29 07:59:53;;;;;;;6.95;2.92;;;;;;;24.44;46.25;94121.03;4981205;28;20033;-63
2022/09/29 08:02:19;;;;;;;3.78;2.45;;;;;;;24.77;46.33;94174.69;4981609;28;20047;-60
2022/09/29 08:04:45;;;;;;;5.43;2.50;;;;;;;24.70;46.20;94164.50;4978795;28;20503;-62
2022/09/29 08:07:10;;;;;;;5.13;3.10;;;;;;;24.37;45.92;94113.53;4981295;28;20034;-63
2022/09/29 08:09:36;;;;;;;4.75;2.50;;;;;;;24.28;46.22;94105.81;4981852;28;20026;-62
2022/09/29 08:12:02;;;;;;;5.57;2.55;;;;;;;24.00;45.97;94075.78;4981254;28;20158;-64
2022/09/29 08:14:27;;;;;;;5.35;2.63;;;;;;;24.65;46.46;94181.72;4980502;28;20077;-62
2022/09/29 08:16:53;;;;;;;5.88;2.45;;;;;;;24.50;46.09;94162.56;4987965;28;20845;-60
2022/09/29 08:19:18;;;;;;;4.57;2.97;;;;;;;24.29;46.11;94129.09;4997832;28;20041;-61
2022/09/29 08:21:45;;;;;;;4.82;2.28;;;;;;;23.98;45.95;94086.50;5001855;28;20017;-63
2022/09/29 08:24:11;;;;;;;6.88;2.78;;;;;;;24.72;46.15;94224.75;4982287;28;20554;-62
2022/09/29 08:26:39;;;;;;;5.90;3.50;;;;;;;24.36;46.19;94156.47;4981351;28;20088;-65
2022/09/29 08:29:04;;;;;;;5.75;2.60;;;;;;;24.68;46.46;94197.78;4981107;28;20145;-66
2022/09/29 08:31:30;;;;;;;5.07;2.50;;;;;;;24.36;46.06;94155.72;4983796;28;20076;-61
2022/09/29 08:33:57;;;;;;;4.88;2.50;;;;;;;24.62;46.21;94182.81;4998740;28;20467;-64
2022/09/29 08:36:23;;;;;;;4.05;2.30;;;;;;;24.67;46.26;94190.13;4965207;28;20038;-65
2022/09/29 08:38:52;;;;;;;4.90;2.67;;;;;;;24.54;46.53;94176.56;4980616;28;20054;-67
2022/09/29 08:41:42;;;;;;;4.88;2.42;;;;;;;24.57;46.42;94186.41;4978471;28;20046;-61
2022/09/29 08:44:12;;;;;;;5.35;2.63;;;;;;;24.52;46.32;94190.03;4985749;28;20038;-61
2022/09/29 08:46:38;;;;;;;;;;;;;;;24.63;46.39;94195.19;4971358;28;20140;-62
2022/09/29 08:49:19;;;;;;;7.72;2.88;;;;;;;24.46;46.19;94173.06;4986992;28;19952;-64
2022/09/29 08:51:49;;;;;;;5.35;2.72;;;;;;;24.31;46.87;94180.41;4971985;28;20087;-66
2022/09/29 08:54:32;;;;;;;6.30;2.80;;;;;;;24.26;46.68;94160.19;4964397;28;20041;-62
2022/09/29 08:56:58;;;;;;;4.03;2.63;;;;;;;24.14;47.02;94134.44;4985254;28;20035;-61
2022/09/29 08:59:26;;;;;;;3.58;2.40;;;;;;;24.46;46.55;94186.72;4962616;28;20046;-61
2022/09/29 09:02:04;;;;;;;4.25;2.40;;;;;;;24.31;46.40;94147.66;4984966;28;20038;-61
2022/09/29 09:04:39;;;;;;;4.50;2.55;;;;;;;24.58;46.54;94193.34;4968630;28;20092;-66
2022/09/29 09:07:08;;;;;;;6.68;2.60;;;;;;;24.25;46.87;94150.53;4985361;28;20033;-63
2022/09/29 09:09:48;;;;;;;5.72;2.40;;;;;;;24.55;46.20;94183.50;4983488;28;20081;-65
2022/09/29 09:12:27;;;;;;;5.95;2.67;;;;;;;24.47;46.33;94155.44;4965045;28;20078;-66
2022/09/29 09:14:58;;;;;;;5.57;2.92;;;;;;;24.53;46.83;94180.59;4974915;28;20085;-60
2022/09/29 09:17:36;;;;;;;9.68;3.08;;;;;;;24.55;46.19;94178.03;4980116;28;20042;-60
2022/09/29 09:20:30;;;;;;;5.18;2.80;;;;;;;24.23;46.03;94103.97;4966266;28;20126;-60
2022/09/29 09:22:57;;;;;;;5.97;3.10;;;;;;;24.54;46.66;94182.03;4957991;28;20077;-59
2022/09/29 09:25:31;;;;;;;7.25;3.00;;;;;;;23.86;46.95;94109.88;4978063;28;20050;-59
2022/09/29 09:28:05;;;;;;;6.78;3.13;;;;;;;24.48;46.19;94195.09;4982259;28;20048;-60
2022/09/29 09:30:43;;;;;;;8.43;3.80;;;;;;;24.56;45.93;94187.72;4965706;28;20494;-61
2022/09/29 09:33:31;;;;;;;17.55;10.60;;;;;;;24.13;45.74;94094.78;4954437;28;20050;-60
2022/09/29 09:36:16;;;;;;;33.92;19.23;;;;;;;24.61;45.46;94181.38;4949410;28;20768;-61
2022/09/29 09:39:18;;;;;;;37.38;21.23;;;;;;;25.07;44.97;94173.63;4975195;28;20533;-58
2022/09/29 09:41:44;;;;;;;27.33;15.23;;;;;;;24.81;44.95;94139.59;4904465;29;20145;-59
2022/09/29 09:44:28;;;;;;;36.35;19.13;;;;;;;24.62;44.97;94128.19;4959002;28;20420;-60
2022/09/29 09:47:20;;;;;;;31.70;18.85;;;;;;;25.08;44.05;94125.91;4957357;28;20046;-60
2022/09/29 09:49:50;;;;;;;24.15;12.73;;;;;;;25.32;43.71;94166.44;4980705;28;20034;-59
2022/09/29 09:52:32;;;;;;;;;;;;;;;25.71;43.42;94179.66;4958545;28;20039;-61
2022/09/29 09:55:05;;;;;;;17.70;10.25;;;;;;;24.99;43.73;94096.38;4977535;28;19925;-60
2022/09/29 09:57:43;;;;;;;19.13;9.68;;;;;;;25.58;43.91;94166.13;4973379;28;20030;-60
2022/09/29 10:00:38;;;;;;;13.90;7.85;;;;;;;25.88;43.49;94178.59;4965410;28;20057;-59
2022/09/29 10:03:05;;;;;;;15.52;7.13;;;;;;;26.12;43.06;94153.44;4957417;28;20030;-61
2022/09/29 10:05:38;;;;;;;13.85;7.03;;;;;;;26.23;43.39;94180.44;4974788;28;20520;-61
2022/09/29 10:08:14;;;;;;;11.23;6.05;;;;;;;26.10;43.64;94183.38;4964019;28;20133;-61
2022/09/29 10:10:43;;;;;;;15.30;5.63;;;;;;;26.02;43.63;94193.59;4964175;28;20043;-64
2022/09/29 10:13:10;;;;;;;11.98;5.40;;;;;;;25.67;42.71;94108.19;4983480;28;20030;-63
2022/09/29 10:15:55;;;;;;;11.18;5.90;;;;;;;26.04;42.89;94163.66;4966407;28;20038;-59
2022/09/29 10:18:39;;;;;;;9.32;4.70;;;;;;;26.34;41.54;94147.25;4977819;28;20101;-57
2022/09/29 10:21:24;;;;;;;9.38;4.68;;;;;;;26.35;41.13;94138.50;4948337;28;20042;-62
2022/09/29 10:23:52;;;;;;;11.13;4.35;;;;;;;26.76;40.44;94170.19;4977781;28;20077;-58
2022/09/29 10:26:24;;;;;;;9.68;4.35;;;;;;;26.23;41.00;94130.44;4983361;28;20034;-61
2022/09/29 10:28:54;;;;;;;10.50;3.80;;;;;;;26.44;41.15;94140.66;4984191;28;20042;-61
2022/09/29 10:31:23;;;;;;;8.13;4.03;;;;;;;26.74;40.27;94167.25;4983495;28;20547;-61
2022/09/29 10:33:56;;;;;;;6.10;3.57;;;;;;;27.06;39.48;94177.06;4984636;28;20363;-64
2022/09/29 10:36:23;;;;;;;7.72;3.90;;;;;;;26.99;39.51;94171.59;4973746;28;20591;-60
2022/09/29 10:38:50;;;;;;;9.82;3.40;;;;;;;27.26;39.24;94162.34;4993446;28;20038;-66
2022/09/29 10:41:17;;;;;;;7.47;3.50;;;;;;;27.14;39.32;94172.28;4961211;28;20166;-63
2022/09/29 10:43:43;;;;;;;6.22;2.97;;;;;;;27.18;39.28;94183.59;4975808;28;20036;-66
2022/09/29 10:46:35;;;;;;;6.78;3.42;;;;;;;26.27;39.79;94104.16;4997584;28;20061;-62
2022/09/29 10:49:17;;;;;;;5.78;2.90;;;;;;;26.78;40.06;94147.16;4982499;28;20042;-61
2022/09/29 10:52:05;;;;;;;5.88;2.72;;;;;;;27.22;38.74;94172.25;4999905;28;20030;-59
2022/09/29 10:54:35;;;;;;;5.72;2.58;;;;;;;26.46;39.06;94094.28;4978679;28;20042;-64
2022/09/29 10:57:14;;;;;;;7.25;2.67;;;;;;;26.16;40.93;94099.06;4972093;28;20146;-64
2022/09/29 10:59:49;;;;;;;7.07;3.40;;;;;;;25.86;41.78;94153.78;4963960;28;20080;-64
2022/09/29 11:02:28;;;;;;;6.53;2.95;;;;;;;25.90;41.92;94137.00;4961547;28;20069;-62
2022/09/29 11:04:55;;;;;;;5.97;2.78;;;;;;;26.12;42.05;94161.66;4982008;28;20038;-62
2022/09/29 11:07:20;;;;;;;6.95;3.10;;;;;;;25.92;42.21;94124.25;4970115;28;20129;-61
2022/09/29 11:09:46;;;;;;;6.97;2.92;;;;;;;25.41;42.42;94076.44;4979051;28;20415;-60
2022/09/29 11:12:28;;;;;;;5.22;2.65;;;;;;;25.34;42.58;94103.75;4975268;28;20048;-60
2022/09/29 11:14:53;;;;;;;6.88;2.92;;;;;;;25.73;42.36;94138.84;4979988;28;20750;-61
2022/09/29 11:17:20;;;;;;;4.60;2.70;;;;;;;26.01;41.90;94162.00;4963795;28;20046;-62
2022/09/29 11:19:45;;;;;;;5.75;2.42;;;;;;;24.94;41.94;94050.78;4963362;28;20034;-61
2022/09/29 11:22:27;;;;;;;3.47;2.42;;;;;;;25.61;41.87;94115.81;4966991;28;20037;-60
2022/09/29 11:24:52;;;;;;;5.05;2.45;;;;;;;25.87;41.50;94144.31;4964917;28;20499;-61
2022/09/29 11:27:42;;;;;;;4.72;2.17;;;;;;;25.79;41.65;94136.66;4976981;28;20047;-61
2022/09/29 11:30:34;;;;;;;;;;;;;;;25.72;41.23;94153.78;4959783;28;20046;-65
2022/09/29 11:33:17;;;;;;;3.53;2.28;;;;;;;25.74;41.54;94151.22;4948861;28;20017;-60
2022/09/29 11:36:03;;;;;;;3.83;1.88;;;;;;;25.78;40.66;94157.06;4977531;28;20085;-59
2022/09/29 11:39:07;;;;;;;4.70;1.90;;;;;;;25.79;40.46;94147.59;4964244;28;20046;-60
2022/09/29 11:42:00;;;;;;;3.80;1.70;;;;;;;25.41;40.07;94075.69;4935117;28;20522;-60
2022/09/29 11:44:58;;;;;;;3.40;1.50;;;;;;;25.78;40.28;94137.94;4964618;28;20046;-57
2022/09/29 11:47:42;;;;;;;3.00;1.60;;;;;;;25.64;41.11;94147.53;4962188;28;20144;-60
2022/09/29 11:50:22;;;;;;;3.38;1.70;;;;;;;25.68;40.48;94147.94;4970509;28;20491;-61
2022/09/29 11:52:54;;;;;;;4.07;1.67;;;;;;;25.52;40.90;94146.44;4966970;28;20061;-60
2022/09/29 11:55:32;;;;;;;3.85;1.55;;;;;;;25.59;41.22;94145.69;4961275;28;20042;-60